Time;durP1;ratioP1;P1;durP2;ratioP2;P2;SDS_P1;SDS_P2;PMS_P1;PMS_P2;Temp;Humidity;BMP_temperature;BMP_pressure;BME280_temperature;BME280_humidity;BME280_pressure;Samples;Min_cycle;Max_cycle;Signal;HPM_P1;HPM_P2
2022/09/11 00:00:29;;;;;;;7.22;6.55;;;;;;;19.43;61.59;94773.53;5004236;28;20238;-71
2022/09/11 00:02:55;;;;;;;8.02;7.22;;;;;;;19.43;61.67;94776.19;5007962;28;20215;-69
2022/09/11 00:05:20;;;;;;;7.43;6.75;;;;;;;19.37;61.86;94778.66;5021211;28;20199;-66
2022/09/11 00:07:49;;;;;;;6.90;6.30;;;;;;;19.35;61.78;94770.09;5012613;28;20297;-71
2022/09/11 00:10:16;;;;;;;7.40;6.60;;;;;;;19.37;62.03;94775.19;5003719;28;20227;-66
2022/09/11 00:12:43;;;;;;;7.32;6.72;;;;;;;19.32;62.26;94767.00;5017369;28;20219;-71
2022/09/11 00:15:09;;;;;;;7.50;6.85;;;;;;;19.37;62.31;94773.34;5006114;28;20207;-72
2022/09/11 00:17:34;;;;;;;7.55;6.80;;;;;;;19.38;61.94;94780.31;4997611;28;20207;-67
2022/09/11 00:20:00;;;;;;;7.68;6.97;;;;;;;19.30;62.02;94785.91;5008707;28;20227;-70
2022/09/11 00:22:26;;;;;;;7.50;6.90;;;;;;;19.28;62.23;94779.94;5009981;28;20269;-70
2022/09/11 00:24:53;;;;;;;8.35;6.80;;;;;;;19.28;62.24;94774.63;5006266;28;20226;-72
2022/09/11 00:27:19;;;;;;;7.93;7.10;;;;;;;19.25;62.42;94780.38;5016501;28;20235;-72
2022/09/11 00:29:44;;;;;;;7.90;7.20;;;;;;;19.21;62.58;94784.47;5004387;28;20499;-67
2022/09/11 00:32:10;;;;;;;8.98;7.28;;;;;;;19.26;62.30;94784.66;5006576;28;20224;-70
2022/09/11 00:34:36;;;;;;;7.18;6.47;;;;;;;19.29;62.21;94781.56;5003004;28;20654;-68
2022/09/11 00:37:02;;;;;;;9.10;6.97;;;;;;;19.25;62.42;94782.22;5009159;28;20234;-71
2022/09/11 00:39:28;;;;;;;8.13;7.43;;;;;;;19.22;62.92;94779.97;5001764;28;20265;-73
2022/09/11 00:41:54;;;;;;;7.60;6.88;;;;;;;19.25;62.73;94784.91;5009989;28;20298;-70
2022/09/11 00:44:27;;;;;;;7.82;7.22;;;;;;;19.27;62.86;94782.81;5010411;28;20226;-67
2022/09/11 00:46:54;;;;;;;8.43;7.22;;;;;;;19.33;62.58;94792.66;4999397;28;20231;-69
2022/09/11 00:49:22;;;;;;;7.80;7.10;;;;;;;19.26;62.86;94790.00;5005497;28;20227;-69
2022/09/11 00:51:58;;;;;;;8.32;7.40;;;;;;;19.23;63.01;94787.75;5002115;28;20269;-68
2022/09/11 00:54:29;;;;;;;7.82;7.05;;;;;;;19.18;63.02;94790.25;5003193;28;20225;-70
2022/09/11 00:56:58;;;;;;;8.25;6.95;;;;;;;19.12;63.25;94780.44;4997535;28;20214;-72
2022/09/11 00:59:27;;;;;;;8.13;7.40;;;;;;;19.11;63.25;94776.94;5006158;28;20223;-69
2022/09/11 01:01:53;;;;;;;7.72;6.65;;;;;;;19.10;63.65;94779.81;4996927;28;20231;-67
2022/09/11 01:04:20;;;;;;;7.95;7.25;;;;;;;19.08;63.50;94785.34;5001652;28;20238;-72
2022/09/11 01:06:46;;;;;;;7.28;6.68;;;;;;;19.00;63.53;94774.09;5005446;28;20211;-71
2022/09/11 01:09:11;;;;;;;7.32;6.63;;;;;;;18.97;63.69;94778.00;5008771;28;20215;-66
2022/09/11 01:11:58;;;;;;;7.50;6.90;;;;;;;18.92;64.45;94783.13;5009435;28;20293;-70
2022/09/11 01:14:35;;;;;;;8.05;6.70;;;;;;;18.89;64.35;94781.72;5000794;28;20247;-72
2022/09/11 01:17:34;;;;;;;7.85;6.88;;;;;;;18.91;64.44;94779.66;5000474;28;20222;-70
2022/09/11 01:20:08;;;;;;;7.93;7.22;;;;;;;18.90;64.68;94774.56;5009488;28;20631;-71
2022/09/11 01:22:52;;;;;;;8.05;7.25;;;;;;;18.87;64.74;94783.78;5005085;28;20246;-70
2022/09/11 01:25:37;;;;;;;8.15;7.35;;;;;;;18.88;64.72;94779.28;5006726;28;20253;-72
2022/09/11 01:28:14;;;;;;;8.18;6.50;;;;;;;18.78;64.99;94779.69;4999726;28;20253;-72
2022/09/11 01:30:46;;;;;;;7.15;6.55;;;;;;;18.78;65.05;94787.69;5000999;28;20230;-71
2022/09/11 01:33:21;;;;;;;7.38;6.70;;;;;;;18.83;64.78;94782.56;5004175;28;20214;-69
2022/09/11 01:35:58;;;;;;;7.60;6.72;;;;;;;18.79;64.83;94780.50;5006377;28;20210;-69
2022/09/11 01:38:33;;;;;;;7.35;6.65;;;;;;;18.79;64.88;94776.03;5013378;28;20273;-66
2022/09/11 01:41:08;;;;;;;7.53;6.82;;;;;;;18.78;64.76;94774.38;5006664;28;20241;-69
2022/09/11 01:43:51;;;;;;;8.07;6.60;;;;;;;18.74;64.73;94767.81;5005292;28;20222;-70
2022/09/11 01:46:21;;;;;;;7.00;6.40;;;;;;;18.82;64.03;94770.28;5017305;28;20222;-69
2022/09/11 01:48:57;;;;;;;8.00;7.10;;;;;;;18.80;63.97;94771.50;5000468;28;20239;-70
2022/09/11 01:51:29;;;;;;;7.78;7.03;;;;;;;18.71;65.37;94761.03;5004355;28;20234;-72
2022/09/11 01:53:58;;;;;;;7.40;6.43;;;;;;;18.66;65.50;94754.72;5003001;28;20206;-71
2022/09/11 01:56:40;;;;;;;8.05;7.35;;;;;;;18.58;66.31;94758.41;5007858;28;20289;-71
2022/09/11 01:59:10;;;;;;;8.02;7.15;;;;;;;18.54;66.86;94756.34;5002549;28;20715;-70
2022/09/11 02:01:41;;;;;;;7.55;6.85;;;;;;;18.39;67.27;94754.75;5004003;28;20230;-69
2022/09/11 02:04:17;;;;;;;7.07;6.57;;;;;;;18.38;67.29;94745.09;5008239;28;20231;-71
2022/09/11 02:06:49;;;;;;;6.82;6.22;;;;;;;18.33;67.46;94747.56;5006066;28;20225;-66
2022/09/11 02:09:20;;;;;;;7.90;6.82;;;;;;;18.32;67.42;94753.09;5008730;28;20218;-70
2022/09/11 02:11:50;;;;;;;7.70;7.00;;;;;;;18.37;67.05;94748.81;5009182;28;20214;-65
2022/09/11 02:14:24;;;;;;;7.15;6.55;;;;;;;18.37;67.02;94745.31;5007690;28;20219;-68
2022/09/11 02:17:04;;;;;;;7.75;6.90;;;;;;;18.34;67.24;94743.91;5004866;28;20293;-72
2022/09/11 02:19:31;;;;;;;9.10;8.05;;;;;;;18.32;67.18;94747.78;5007423;28;20719;-71
2022/09/11 02:21:57;;;;;;;7.47;6.78;;;;;;;18.33;67.15;94750.22;4995641;28;20230;-71
2022/09/11 02:24:24;;;;;;;10.63;7.63;;;;;;;18.34;67.36;94751.06;5005097;28;20679;-71
2022/09/11 02:27:06;;;;;;;11.65;7.65;;;;;;;18.24;67.54;94743.50;5001988;28;20258;-69
2022/09/11 02:29:33;;;;;;;10.77;7.93;;;;;;;18.27;67.63;94748.41;5011269;28;20247;-70
2022/09/11 02:31:59;;;;;;;7.82;6.97;;;;;;;18.27;67.70;94737.75;5007378;28;20659;-65
2022/09/11 02:34:28;;;;;;;7.90;7.15;;;;;;;18.32;67.52;94735.28;4997926;28;20220;-71
2022/09/11 02:37:15;;;;;;;7.70;6.97;;;;;;;18.29;67.41;94743.69;4997272;28;20231;-69
2022/09/11 02:40:11;;;;;;;9.10;6.93;;;;;;;18.23;68.08;94737.34;5002743;28;20218;-70
2022/09/11 02:42:55;;;;;;;8.32;7.53;;;;;;;18.28;67.67;94748.19;4999690;28;20613;-69
2022/09/11 02:45:40;;;;;;;9.20;8.07;;;;;;;18.16;68.04;94749.84;5001292;28;20299;-70
2022/09/11 02:48:33;;;;;;;10.93;7.50;;;;;;;17.95;69.19;94750.03;5008083;28;20206;-70
2022/09/11 02:51:19;;;;;;;8.23;7.50;;;;;;;18.03;69.07;94744.50;5004782;28;20207;-67
2022/09/11 02:54:08;;;;;;;10.35;8.13;;;;;;;18.05;68.89;94745.94;5005131;28;20210;-70
2022/09/11 02:56:41;;;;;;;13.00;8.10;;;;;;;18.03;68.85;94745.31;5008158;28;20634;-66
2022/09/11 02:59:23;;;;;;;9.45;7.63;;;;;;;18.05;68.70;94737.97;5009738;28;20311;-66
2022/09/11 03:01:51;;;;;;;8.80;7.97;;;;;;;18.08;68.76;94745.53;4998502;28;20301;-70
2022/09/11 03:04:19;;;;;;;8.70;7.18;;;;;;;18.02;68.95;94735.72;5011628;28;20227;-70
2022/09/11 03:06:47;;;;;;;8.35;7.18;;;;;;;18.11;68.74;94743.50;4994230;28;20222;-72
2022/09/11 03:09:13;;;;;;;10.00;7.75;;;;;;;18.03;68.97;94747.16;5008627;28;20209;-72
2022/09/11 03:11:38;;;;;;;7.35;6.70;;;;;;;17.93;69.53;94752.06;5008271;28;20385;-69
2022/09/11 03:14:04;;;;;;;8.05;7.25;;;;;;;17.94;69.48;94748.41;5005324;28;20243;-70
2022/09/11 03:16:29;;;;;;;7.50;6.90;;;;;;;17.98;69.28;94762.91;5009903;28;20591;-72
2022/09/11 03:18:54;;;;;;;9.38;7.75;;;;;;;17.94;69.25;94759.88;5011229;28;20718;-71
2022/09/11 03:21:20;;;;;;;7.78;7.10;;;;;;;17.88;69.67;94758.00;5011388;28;20221;-69
2022/09/11 03:23:46;;;;;;;8.30;7.70;;;;;;;17.90;69.88;94765.78;5010154;28;20207;-69
2022/09/11 03:26:11;;;;;;;9.82;8.25;;;;;;;17.87;69.63;94767.00;5005297;28;20229;-66
2022/09/11 03:28:38;;;;;;;8.88;8.00;;;;;;;17.97;69.29;94771.94;5009044;28;20226;-66
2022/09/11 03:31:04;;;;;;;8.60;7.80;;;;;;;17.84;69.90;94764.75;5002471;28;20343;-71
2022/09/11 03:33:29;;;;;;;9.25;8.27;;;;;;;17.84;69.66;94765.56;5010839;28;20730;-71
2022/09/11 03:35:55;;;;;;;9.07;8.23;;;;;;;17.70;70.45;94765.75;5003130;28;20207;-70
2022/09/11 03:38:20;;;;;;;8.75;7.95;;;;;;;17.85;70.10;94774.38;5003773;28;20700;-71
2022/09/11 03:40:45;;;;;;;8.82;7.95;;;;;;;17.91;69.56;94773.56;5002170;28;20311;-71
2022/09/11 03:43:11;;;;;;;8.52;7.72;;;;;;;17.81;70.01;94773.97;5006344;28;20219;-69
2022/09/11 03:45:37;;;;;;;8.98;8.18;;;;;;;17.70;70.70;94782.50;5008711;28;20215;-70
2022/09/11 03:48:05;;;;;;;8.90;8.10;;;;;;;17.87;69.65;94782.16;5003486;28;20265;-66
2022/09/11 03:50:31;;;;;;;9.27;8.35;;;;;;;17.76;70.07;94786.19;4997943;28;20195;-70
2022/09/11 03:52:57;;;;;;;8.93;7.85;;;;;;;17.78;70.06;94786.81;5010313;28;20302;-70
2022/09/11 03:55:22;;;;;;;9.07;8.13;;;;;;;17.68;70.68;94787.19;5001148;28;20314;-66
2022/09/11 03:57:48;;;;;;;9.20;8.40;;;;;;;17.61;71.05;94791.66;5004710;28;20223;-70
2022/09/11 04:00:13;;;;;;;9.07;8.10;;;;;;;17.55;71.15;94785.31;5007822;28;20971;-70
2022/09/11 04:02:39;;;;;;;9.35;7.50;;;;;;;17.61;71.03;94794.31;4998440;28;20231;-71
2022/09/11 04:05:05;;;;;;;9.50;8.23;;;;;;;17.59;70.95;94783.91;5005289;28;20238;-65
2022/09/11 04:07:30;;;;;;;9.57;8.50;;;;;;;17.56;71.31;94789.63;5002387;28;20223;-69
2022/09/11 04:09:56;;;;;;;10.45;8.80;;;;;;;17.61;71.23;94789.00;5015018;28;20226;-65
2022/09/11 04:12:22;;;;;;;9.48;8.57;;;;;;;17.60;71.26;94793.50;4999112;28;20314;-70
2022/09/11 04:14:49;;;;;;;10.05;8.82;;;;;;;17.73;70.87;94789.25;4993374;28;20637;-71
2022/09/11 04:17:15;;;;;;;9.45;8.65;;;;;;;17.69;70.81;94782.69;5010642;28;20241;-71
2022/09/11 04:19:40;;;;;;;9.20;8.30;;;;;;;17.74;70.71;94780.25;5006100;28;20314;-69
2022/09/11 04:22:06;;;;;;;9.77;8.77;;;;;;;17.65;70.86;94784.94;5000342;28;20326;-68
2022/09/11 04:24:31;;;;;;;9.68;8.75;;;;;;;17.66;70.61;94791.88;5002135;28;20226;-69
2022/09/11 04:26:59;;;;;;;9.85;8.95;;;;;;;17.64;71.15;94785.94;5006083;28;20247;-71
2022/09/11 04:29:25;;;;;;;8.48;7.78;;;;;;;17.62;71.23;94791.47;5009849;28;20206;-68
2022/09/11 04:31:51;;;;;;;9.88;8.93;;;;;;;17.82;70.45;94786.22;5010405;28;20223;-71
2022/09/11 04:34:17;;;;;;;10.02;8.70;;;;;;;17.85;70.04;94785.00;5007316;28;20253;-72
2022/09/11 04:36:42;;;;;;;10.13;9.15;;;;;;;17.90;69.79;94787.88;5002981;28;20262;-71
2022/09/11 04:39:08;;;;;;;11.02;8.75;;;;;;;17.73;70.46;94787.41;5006547;28;20218;-72
2022/09/11 04:41:33;;;;;;;10.57;9.60;;;;;;;17.60;71.09;94790.84;5009768;28;20239;-70
2022/09/11 04:44:00;;;;;;;9.57;8.77;;;;;;;17.78;69.78;94786.81;5005797;28;20216;-70
2022/09/11 04:46:25;;;;;;;9.43;8.57;;;;;;;17.81;69.45;94795.22;5003244;28;20223;-71
2022/09/11 04:48:54;;;;;;;10.00;9.10;;;;;;;17.72;69.87;94796.44;5016743;28;20277;-71
2022/09/11 04:51:25;;;;;;;9.93;8.93;;;;;;;17.63;70.07;94797.63;5010208;28;20607;-72
2022/09/11 04:53:53;;;;;;;9.98;8.95;;;;;;;17.72;69.85;94803.56;5006515;28;20270;-72
2022/09/11 04:56:22;;;;;;;12.63;8.70;;;;;;;17.64;69.86;94789.44;5007235;28;20239;-72
2022/09/11 04:58:53;;;;;;;8.82;8.10;;;;;;;17.79;69.53;94802.59;5007242;28;20215;-71
2022/09/11 05:01:19;;;;;;;10.30;9.20;;;;;;;17.74;69.67;94809.50;4997498;28;20897;-72
2022/09/11 05:03:45;;;;;;;9.35;8.45;;;;;;;17.78;69.63;94789.47;5021396;28;20219;-72
2022/09/11 05:06:15;;;;;;;8.57;7.82;;;;;;;17.81;69.59;94794.41;5009200;28;20907;-72
2022/09/11 05:08:42;;;;;;;8.82;7.93;;;;;;;17.83;69.64;94797.72;5004293;28;20207;-68
2022/09/11 05:11:13;;;;;;;9.57;8.68;;;;;;;17.86;69.80;94791.97;5001807;28;20226;-67
2022/09/11 05:13:39;;;;;;;9.95;8.95;;;;;;;17.90;69.69;94793.19;4997232;28;20218;-72
2022/09/11 05:16:10;;;;;;;9.50;8.60;;;;;;;17.91;69.60;94794.84;5002841;28;20226;-73
2022/09/11 05:18:36;;;;;;;10.10;9.20;;;;;;;17.95;69.54;94789.94;4997275;28;20224;-71
2022/09/11 05:21:04;;;;;;;10.73;9.82;;;;;;;18.05;69.36;94791.19;4999056;28;20218;-71
2022/09/11 05:23:31;;;;;;;12.15;10.00;;;;;;;18.14;68.90;94793.63;5005230;28;20466;-72
2022/09/11 05:26:02;;;;;;;11.13;10.05;;;;;;;18.15;68.76;94792.59;5004443;28;20696;-73
2022/09/11 05:28:28;;;;;;;11.23;10.13;;;;;;;18.17;68.57;94794.03;5004789;28;20231;-66
2022/09/11 05:30:55;;;;;;;12.13;11.00;;;;;;;18.23;68.38;94787.06;5007717;28;20226;-69
2022/09/11 05:33:25;;;;;;;11.63;10.43;;;;;;;18.31;68.27;94792.22;5006480;28;20739;-66
2022/09/11 05:36:01;;;;;;;11.57;10.48;;;;;;;18.30;68.20;94798.56;5009312;28;20210;-70
2022/09/11 05:38:26;;;;;;;11.50;10.38;;;;;;;18.34;68.31;94794.47;5003759;28;20254;-69
2022/09/11 05:40:52;;;;;;;11.45;10.10;;;;;;;18.43;67.90;94784.44;5006686;28;20589;-66
2022/09/11 05:43:18;;;;;;;11.18;10.27;;;;;;;18.45;67.79;94785.84;5002613;28;20223;-70
2022/09/11 05:45:52;;;;;;;10.68;9.77;;;;;;;18.51;67.64;94793.00;5000010;28;20261;-66
2022/09/11 05:48:18;;;;;;;11.15;10.15;;;;;;;18.54;67.31;94777.66;5007119;28;20286;-72
2022/09/11 05:50:54;;;;;;;10.27;9.23;;;;;;;18.54;67.18;94778.47;5000705;28;20302;-71
2022/09/11 05:53:20;;;;;;;11.73;10.32;;;;;;;18.57;67.40;94782.56;4999012;28;20227;-71
2022/09/11 05:55:46;;;;;;;10.82;9.98;;;;;;;18.66;67.19;94784.00;5007451;28;20231;-66
2022/09/11 05:58:12;;;;;;;11.50;10.50;;;;;;;18.71;67.23;94790.34;5008601;28;20223;-67
2022/09/11 06:00:39;;;;;;;11.35;10.35;;;;;;;18.81;66.47;94789.94;5008457;28;20211;-67
2022/09/11 06:03:06;;;;;;;11.40;10.50;;;;;;;18.84;66.64;94788.69;5007784;28;20202;-70
2022/09/11 06:05:32;;;;;;;11.10;10.02;;;;;;;18.90;66.63;94791.34;5023406;28;20208;-71
2022/09/11 06:07:57;;;;;;;12.18;11.07;;;;;;;18.90;66.63;94788.69;5006789;28;20296;-68
2022/09/11 06:10:23;;;;;;;12.15;11.13;;;;;;;19.00;66.49;94795.41;5008584;28;20235;-66
2022/09/11 06:12:48;;;;;;;12.48;11.43;;;;;;;19.03;66.50;94789.66;4989529;28;20221;-72
2022/09/11 06:15:14;;;;;;;11.68;10.68;;;;;;;19.09;66.16;94794.19;5008468;28;20753;-71
2022/09/11 06:17:40;;;;;;;13.50;12.10;;;;;;;19.16;65.58;94797.63;5009536;28;20598;-71
2022/09/11 06:20:05;;;;;;;11.75;10.70;;;;;;;19.13;65.83;94795.38;5008074;28;20230;-66
2022/09/11 06:22:33;;;;;;;12.82;11.82;;;;;;;19.09;65.75;94799.50;5004366;28;20697;-69
2022/09/11 06:24:58;;;;;;;12.65;11.75;;;;;;;19.20;65.62;94798.84;5011280;28;20246;-66
2022/09/11 06:27:24;;;;;;;12.77;11.68;;;;;;;19.30;65.11;94807.22;5013224;28;20269;-70
2022/09/11 06:29:50;;;;;;;12.82;11.70;;;;;;;19.33;64.83;94808.66;5013694;28;20206;-69
2022/09/11 06:32:15;;;;;;;13.65;12.55;;;;;;;19.30;64.96;94806.38;5013632;28;20240;-66
2022/09/11 06:34:41;;;;;;;12.35;11.35;;;;;;;19.37;64.72;94800.00;5015265;28;20223;-70
2022/09/11 06:37:06;;;;;;;13.65;12.43;;;;;;;19.49;64.04;94808.16;5013165;28;20223;-69
2022/09/11 06:39:33;;;;;;;12.57;11.48;;;;;;;19.54;63.73;94807.50;5005530;28;20229;-66
2022/09/11 06:41:58;;;;;;;13.77;12.40;;;;;;;19.46;64.11;94813.09;5011959;28;20599;-72
2022/09/11 06:44:25;;;;;;;12.35;11.32;;;;;;;19.49;63.91;94815.34;5027778;28;20290;-65
2022/09/11 06:46:51;;;;;;;12.60;11.52;;;;;;;19.51;63.73;94816.78;5013877;28;20226;-66
2022/09/11 06:49:16;;;;;;;13.00;11.85;;;;;;;19.68;63.32;94813.66;5011214;28;20781;-69
2022/09/11 06:51:41;;;;;;;11.93;11.02;;;;;;;19.77;62.62;94815.84;5006395;28;20214;-65
2022/09/11 06:54:07;;;;;;;12.73;11.60;;;;;;;19.73;62.82;94820.00;5014684;28;20207;-69
2022/09/11 06:56:32;;;;;;;12.32;11.15;;;;;;;19.90;62.43;94819.47;5005152;28;20350;-71
2022/09/11 06:58:58;;;;;;;13.43;12.32;;;;;;;19.96;61.96;94818.63;5009668;28;20838;-66
2022/09/11 07:01:24;;;;;;;11.50;10.43;;;;;;;20.01;60.28;94821.47;5013554;28;20237;-66
2022/09/11 07:03:53;;;;;;;11.13;10.13;;;;;;;20.11;59.64;94821.00;5013897;28;20222;-70
2022/09/11 07:06:24;;;;;;;10.85;10.05;;;;;;;20.24;59.65;94818.25;5013665;28;20219;-70
2022/09/11 07:08:59;;;;;;;10.82;9.93;;;;;;;20.44;58.51;94820.75;5005997;28;20211;-69
2022/09/11 07:11:26;;;;;;;10.07;9.23;;;;;;;20.47;57.88;94820.31;5009838;28;20223;-71
2022/09/11 07:13:52;;;;;;;10.20;9.30;;;;;;;20.56;57.12;94813.72;5013086;28;20231;-66
2022/09/11 07:16:18;;;;;;;10.35;9.43;;;;;;;20.58;57.48;94814.31;5012227;28;20234;-66
2022/09/11 07:18:45;;;;;;;9.07;8.30;;;;;;;20.57;57.03;94812.66;5013454;28;20235;-71
2022/09/11 07:21:16;;;;;;;9.00;8.20;;;;;;;20.58;57.44;94808.97;5011281;28;20205;-66
2022/09/11 07:23:50;;;;;;;8.40;7.65;;;;;;;20.71;56.78;94818.69;5007580;28;20732;-71
2022/09/11 07:26:17;;;;;;;8.68;7.97;;;;;;;20.74;55.42;94812.09;5006691;28;20221;-69
2022/09/11 07:28:42;;;;;;;8.45;7.75;;;;;;;20.72;55.04;94817.69;5010469;28;20241;-71
2022/09/11 07:31:19;;;;;;;8.30;7.70;;;;;;;20.68;53.89;94808.44;5013067;28;20711;-71
2022/09/11 07:33:47;;;;;;;8.52;7.93;;;;;;;20.67;53.96;94810.31;5009825;28;20230;-69
2022/09/11 07:36:18;;;;;;;9.75;8.95;;;;;;;20.78;54.16;94810.63;5001462;28;20214;-65
2022/09/11 07:38:45;;;;;;;9.23;8.32;;;;;;;20.75;53.79;94803.06;5002747;28;20229;-66
2022/09/11 07:41:12;;;;;;;8.68;8.07;;;;;;;20.80;53.30;94797.88;5009700;28;20225;-71
2022/09/11 07:43:40;;;;;;;9.15;8.40;;;;;;;20.74;52.53;94810.22;4993927;28;20401;-66
2022/09/11 07:46:08;;;;;;;9.43;8.65;;;;;;;20.88;51.57;94803.75;5004655;28;20234;-72
2022/09/11 07:48:35;;;;;;;9.63;8.93;;;;;;;20.87;51.03;94803.94;5005521;28;20231;-71
2022/09/11 07:51:05;;;;;;;8.88;8.18;;;;;;;20.91;51.09;94800.63;5011500;28;20301;-71
2022/09/11 07:53:36;;;;;;;9.18;8.55;;;;;;;20.87;51.43;94798.63;5009320;28;20229;-72
2022/09/11 07:56:06;;;;;;;9.23;8.38;;;;;;;20.91;50.94;94799.81;5006542;28;20229;-66
2022/09/11 07:58:38;;;;;;;8.77;8.18;;;;;;;20.92;51.16;94793.41;5005979;28;20233;-71
2022/09/11 08:01:09;;;;;;;8.48;7.88;;;;;;;20.77;51.47;94793.78;5007589;28;20219;-66
2022/09/11 08:03:36;;;;;;;9.30;8.63;;;;;;;20.77;52.72;94795.63;5010722;28;20225;-71
2022/09/11 08:06:05;;;;;;;10.05;9.25;;;;;;;20.82;52.69;94788.59;5003241;28;20726;-72
2022/09/11 08:08:31;;;;;;;10.10;9.30;;;;;;;20.98;52.94;94792.53;5004219;28;20259;-69
2022/09/11 08:11:02;;;;;;;10.23;9.43;;;;;;;21.10;53.33;94792.63;5012105;28;20394;-71
2022/09/11 08:13:28;;;;;;;10.75;9.85;;;;;;;21.17;52.98;94787.19;5004959;28;20215;-68
2022/09/11 08:15:53;;;;;;;11.30;10.38;;;;;;;21.17;53.18;94792.53;5008789;28;20222;-71
2022/09/11 08:18:19;;;;;;;10.52;9.60;;;;;;;21.20;52.44;94792.94;5020535;28;20210;-68
2022/09/11 08:20:44;;;;;;;9.90;9.20;;;;;;;21.22;51.09;94790.00;5010287;28;20217;-69
2022/09/11 08:23:10;;;;;;;10.18;9.32;;;;;;;21.24;50.27;94785.25;5009254;28;20754;-69
2022/09/11 08:25:36;;;;;;;10.10;9.30;;;;;;;21.08;51.32;94771.44;5009742;28;20227;-69
2022/09/11 08:28:02;;;;;;;10.13;9.23;;;;;;;21.18;51.71;94783.50;5009383;28;20316;-72
2022/09/11 08:30:27;;;;;;;10.40;9.50;;;;;;;21.31;51.97;94775.31;5007008;28;20231;-71
2022/09/11 08:32:53;;;;;;;10.80;9.95;;;;;;;21.42;51.07;94771.91;5001917;28;20207;-72
2022/09/11 08:35:19;;;;;;;10.80;9.90;;;;;;;21.39;50.47;94784.94;4998111;28;20766;-71
2022/09/11 08:37:44;;;;;;;10.75;9.95;;;;;;;21.40;50.55;94781.19;5024962;28;20227;-66
2022/09/11 08:40:10;;;;;;;10.88;9.88;;;;;;;21.46;50.99;94791.00;5009355;28;20309;-70
2022/09/11 08:42:40;;;;;;;10.68;9.80;;;;;;;21.57;50.92;94780.38;5008442;28;20545;-67
2022/09/11 08:45:06;;;;;;;10.48;9.73;;;;;;;21.44;51.67;94777.88;5008869;28;20220;-70
2022/09/11 08:47:37;;;;;;;11.27;10.38;;;;;;;21.57;51.45;94771.50;4999702;28;20203;-70
2022/09/11 08:50:11;;;;;;;11.30;10.30;;;;;;;21.59;51.58;94772.91;5017277;28;20226;-66
2022/09/11 08:52:37;;;;;;;11.70;10.55;;;;;;;21.74;51.97;94769.03;5003456;28;20229;-72
2022/09/11 08:55:03;;;;;;;11.73;10.85;;;;;;;21.74;51.18;94763.69;5006985;28;20237;-70
2022/09/11 08:57:41;;;;;;;11.52;10.52;;;;;;;21.78;51.66;94762.16;5002148;28;20219;-71
2022/09/11 09:00:27;;;;;;;11.40;10.45;;;;;;;21.91;51.13;94756.63;5001609;28;20212;-72
2022/09/11 09:03:14;;;;;;;10.48;9.75;;;;;;;22.17;49.36;94759.97;4961922;28;20220;-68
2022/09/11 09:05:54;;;;;;;9.93;9.20;;;;;;;22.23;49.04;94751.03;4969549;28;20516;-72
2022/09/11 09:08:40;;;;;;;10.65;9.82;;;;;;;22.48;49.01;94747.31;4968468;28;20907;-71
2022/09/11 09:11:27;;;;;;;10.60;9.85;;;;;;;22.44;49.17;94745.09;4953069;28;20220;-67
2022/09/11 09:14:05;;;;;;;10.57;9.80;;;;;;;22.65;48.40;94746.41;4971054;28;20229;-68
2022/09/11 09:16:54;;;;;;;9.27;8.43;;;;;;;22.60;46.50;94740.91;4956786;28;20262;-69
2022/09/11 09:19:38;;;;;;;8.25;7.65;;;;;;;22.76;45.94;94741.28;4955321;28;20227;-71
2022/09/11 09:22:15;;;;;;;10.07;9.35;;;;;;;22.97;46.14;94732.66;4957868;28;20228;-71
2022/09/11 09:25:04;;;;;;;9.90;9.20;;;;;;;23.00;46.02;94729.50;4966460;28;20223;-71
2022/09/11 09:27:34;;;;;;;9.70;8.77;;;;;;;23.00;45.55;94728.69;4969481;28;20243;-70
2022/09/11 09:30:12;;;;;;;10.77;9.98;;;;;;;22.90;45.51;94726.56;4951886;28;20992;-70
2022/09/11 09:33:05;;;;;;;9.05;8.23;;;;;;;23.03;44.26;94733.56;4966297;28;20704;-68
2022/09/11 09:35:42;;;;;;;9.95;9.15;;;;;;;23.20;43.81;94726.44;4891216;29;20743;-72
2022/09/11 09:38:17;;;;;;;8.93;8.23;;;;;;;23.25;43.12;94723.81;4910470;29;20269;-67
2022/09/11 09:41:02;;;;;;;9.70;8.80;;;;;;;23.27;43.38;94727.09;4940254;28;20237;-72
2022/09/11 09:43:46;;;;;;;9.80;9.10;;;;;;;23.29;43.17;94714.25;4952020;28;20224;-68
2022/09/11 09:46:14;;;;;;;9.07;8.35;;;;;;;23.46;42.26;94713.50;4951504;28;20228;-70
2022/09/11 09:48:40;;;;;;;8.70;7.93;;;;;;;23.53;41.19;94714.19;4952652;28;20223;-68
2022/09/11 09:51:11;;;;;;;7.90;7.30;;;;;;;23.58;40.48;94710.78;4968672;28;20211;-70
2022/09/11 09:53:54;;;;;;;9.88;9.15;;;;;;;23.67;41.07;94720.06;4968878;28;20223;-71
2022/09/11 09:56:22;;;;;;;8.55;7.95;;;;;;;23.74;40.69;94716.22;4948463;28;20239;-66
2022/09/11 09:59:08;;;;;;;8.82;8.23;;;;;;;23.91;40.68;94710.06;4966932;28;20279;-69
2022/09/11 10:01:48;;;;;;;8.93;8.27;;;;;;;24.09;40.37;94723.25;4895352;29;20307;-72
2022/09/11 10:04:22;;;;;;;7.65;7.07;;;;;;;24.03;39.34;94718.88;4917225;29;20245;-69
2022/09/11 10:06:51;;;;;;;8.52;7.75;;;;;;;24.08;39.44;94708.19;4909224;29;20326;-71
2022/09/11 10:09:22;;;;;;;8.70;7.53;;;;;;;24.28;39.52;94701.53;4891954;29;20426;-71
2022/09/11 10:12:07;;;;;;;7.68;7.18;;;;;;;24.31;39.46;94699.16;4912940;29;20237;-69
2022/09/11 10:14:49;;;;;;;8.50;7.80;;;;;;;24.28;39.48;94688.91;4946277;28;20228;-70
2022/09/11 10:17:31;;;;;;;7.60;7.05;;;;;;;24.51;38.65;94697.88;4934635;28;20260;-70
2022/09/11 10:20:14;;;;;;;7.25;6.75;;;;;;;24.48;38.04;94696.47;4926876;29;20233;-69
2022/09/11 10:22:40;;;;;;;7.15;6.55;;;;;;;24.51;38.04;94697.88;4953334;28;20240;-66
2022/09/11 10:25:09;;;;;;;7.10;6.60;;;;;;;24.56;37.61;94698.75;4950712;28;20228;-71
2022/09/11 10:27:43;;;;;;;7.70;7.00;;;;;;;24.74;36.93;94692.28;4951523;28;20239;-71
2022/09/11 10:30:30;;;;;;;8.20;7.40;;;;;;;24.90;37.75;94687.94;4953542;28;20281;-71
2022/09/11 10:32:57;;;;;;;7.88;7.25;;;;;;;25.03;37.10;94687.56;4950773;28;20212;-70
2022/09/11 10:35:25;;;;;;;7.28;6.78;;;;;;;25.24;36.36;94683.28;4933090;29;20239;-71
2022/09/11 10:38:16;;;;;;;7.63;7.03;;;;;;;25.62;36.11;94684.22;4938912;28;20230;-69
2022/09/11 10:40:52;;;;;;;7.03;6.53;;;;;;;25.75;35.98;94685.69;4993786;28;20306;-69
2022/09/11 10:43:24;;;;;;;8.13;7.43;;;;;;;25.71;36.07;94687.25;5012217;28;20314;-67
2022/09/11 10:46:31;;;;;;;6.82;6.32;;;;;;;25.63;35.68;94685.84;4987998;28;20254;-73
2022/09/11 10:49:07;;;;;;;7.65;7.15;;;;;;;25.71;36.91;94681.88;5001018;28;20220;-66
2022/09/11 10:51:38;;;;;;;6.43;5.95;;;;;;;25.78;35.28;94677.09;5003501;28;20222;-72
2022/09/11 10:54:25;;;;;;;6.88;6.38;;;;;;;25.83;35.68;94673.66;5008315;28;20202;-71
2022/09/11 10:57:12;;;;;;;6.18;5.65;;;;;;;26.01;35.44;94675.16;5006278;28;20211;-69
2022/09/11 10:59:46;;;;;;;6.22;5.68;;;;;;;26.15;34.75;94668.31;4991934;28;20249;-67
2022/09/11 11:02:27;;;;;;;7.00;6.50;;;;;;;26.46;34.95;94666.63;5007086;28;20301;-71
2022/09/11 11:04:55;;;;;;;6.47;6.07;;;;;;;26.97;34.00;94671.53;5005903;28;20230;-70
2022/09/11 11:07:44;;;;;;;6.32;5.90;;;;;;;27.13;34.09;94667.84;5000422;28;20219;-71
2022/09/11 11:10:24;;;;;;;7.55;6.95;;;;;;;27.19;33.64;94672.22;4998365;28;20254;-69
2022/09/11 11:12:56;;;;;;;7.32;5.85;;;;;;;27.42;32.64;94676.31;5000414;28;20223;-72
2022/09/11 11:15:21;;;;;;;7.05;6.10;;;;;;;27.53;32.84;94666.34;5007926;28;20234;-66
2022/09/11 11:18:05;;;;;;;7.10;6.60;;;;;;;27.53;32.58;94668.25;5011583;28;20261;-69
2022/09/11 11:20:49;;;;;;;6.35;5.95;;;;;;;26.98;33.59;94660.47;4998997;28;20608;-70
2022/09/11 11:23:18;;;;;;;7.30;6.70;;;;;;;26.98;33.42;94665.06;5010243;28;20226;-70
2022/09/11 11:25:59;;;;;;;6.53;6.03;;;;;;;27.00;33.75;94649.44;5004647;28;20259;-69
2022/09/11 11:29:11;;;;;;;6.63;6.13;;;;;;;27.25;33.68;94646.03;5010069;28;20333;-70
2022/09/11 11:32:03;;;;;;;7.30;6.70;;;;;;;27.54;32.91;94641.00;4954238;28;20227;-65
2022/09/11 11:34:37;;;;;;;6.78;6.38;;;;;;;27.76;32.74;94648.03;4954238;28;20220;-65
2022/09/11 11:37:10;;;;;;;6.30;5.78;;;;;;;27.88;31.58;94635.09;4955662;28;20223;-70
2022/09/11 11:39:56;;;;;;;6.35;5.78;;;;;;;27.66;31.92;94635.31;4951914;28;20228;-70
2022/09/11 11:42:26;;;;;;;6.00;5.55;;;;;;;28.17;31.02;94632.66;4972821;28;20239;-66
2022/09/11 11:44:57;;;;;;;5.53;5.13;;;;;;;28.00;30.58;94635.66;4972828;28;20216;-71
2022/09/11 11:47:29;;;;;;;5.78;5.47;;;;;;;28.03;30.36;94613.50;4970423;28;20326;-69